Moody, Maine
Current Conditions -  °F | °C
As of 8:15 PM on Monday 26 Jan 2015 (Local Time) from KSFM Reporting Station
Overcast Overcast  
Wind Chill: -1°   Ceiling: 6500
Heat Index: 16°   Visibility: 10mi
Dew Point: -2°   Wind: 18mph
Humidity: 45%   Direction: 30°NNE
Pressure: 30.13"   Gusts: 24mph
Location:  43.27°N, 70.6°W
Report Text: KSFM 270115Z AUTO 03016G21KT 10SM SCT027 OVC065 M09/M19 A3013 RMK AO1
Loading
Personal Weather Stations






























Interactive Weather Map New forecast layout! Learn more

10-Day Weather Forecast

Advertisements
Track Severe Weather on mobile